sensor_id;sensor_type;location;lat;lon;timestamp;temperature;humidity
61201;DHT22;47065;52.898;6.992;2023-11-19T00:02:19;10.70;99.90
61201;DHT22;47065;52.898;6.992;2023-11-19T00:04:44;10.70;99.90
61201;DHT22;47065;52.898;6.992;2023-11-19T00:07:10;10.80;99.90
61201;DHT22;47065;52.898;6.992;2023-11-19T00:09:37;10.80;99.90
61201;DHT22;47065;52.898;6.992;2023-11-19T00:12:07;10.80;99.90
61201;DHT22;47065;52.898;6.992;2023-11-19T00:14:33;10.80;99.90
61201;DHT22;47065;52.898;6.992;2023-11-19T00:17:00;10.80;99.90
61201;DHT22;47065;52.898;6.992;2023-11-19T00:19:25;10.90;99.90
61201;DHT22;47065;52.898;6.992;2023-11-19T00:21:52;10.90;99.90
61201;DHT22;47065;52.898;6.992;2023-11-19T00:24:17;10.90;99.90
61201;DHT22;47065;52.898;6.992;2023-11-19T00:26:43;10.90;99.90
61201;DHT22;47065;52.898;6.992;2023-11-19T00:29:09;10.90;99.90
61201;DHT22;47065;52.898;6.992;2023-11-19T00:31:36;10.90;99.90
61201;DHT22;47065;52.898;6.992;2023-11-19T00:34:02;11.00;99.90
61201;DHT22;47065;52.898;6.992;2023-11-19T00:36:28;11.00;99.90
61201;DHT22;47065;52.898;6.992;2023-11-19T00:38:54;11.00;99.90
61201;DHT22;47065;52.898;6.992;2023-11-19T00:41:20;11.00;99.90
61201;DHT22;47065;52.898;6.992;2023-11-19T00:43:46;11.00;99.90
61201;DHT22;47065;52.898;6.992;2023-11-19T00:46:11;11.00;99.90
61201;DHT22;47065;52.898;6.992;2023-11-19T00:48:39;11.10;99.90
61201;DHT22;47065;52.898;6.992;2023-11-19T00:51:05;11.10;99.90
61201;DHT22;47065;52.898;6.992;2023-11-19T00:53:31;11.10;99.90
61201;DHT22;47065;52.898;6.992;2023-11-19T00:55:57;11.10;99.90
61201;DHT22;47065;52.898;6.992;2023-11-19T00:58:23;11.10;99.90
61201;DHT22;47065;52.898;6.992;2023-11-19T01:00:49;11.20;99.90
61201;DHT22;47065;52.898;6.992;2023-11-19T01:03:15;11.10;99.90
61201;DHT22;47065;52.898;6.992;2023-11-19T01:05:44;11.20;99.90
61201;DHT22;47065;52.898;6.992;2023-11-19T01:08:12;11.20;99.90
61201;DHT22;47065;52.898;6.992;2023-11-19T01:10:37;11.20;99.90
61201;DHT22;47065;52.898;6.992;2023-11-19T01:13:04;11.30;99.90
61201;DHT22;47065;52.898;6.992;2023-11-19T01:15:32;11.30;99.90
61201;DHT22;47065;52.898;6.992;2023-11-19T01:17:57;11.30;99.90
61201;DHT22;47065;52.898;6.992;2023-11-19T01:20:23;11.30;99.90
61201;DHT22;47065;52.898;6.992;2023-11-19T01:22:49;11.40;99.90
61201;DHT22;47065;52.898;6.992;2023-11-19T01:25:15;11.40;99.90
61201;DHT22;47065;52.898;6.992;2023-11-19T01:27:40;11.40;99.90
61201;DHT22;47065;52.898;6.992;2023-11-19T01:30:07;11.50;99.90
61201;DHT22;47065;52.898;6.992;2023-11-19T01:32:38;11.50;99.90
61201;DHT22;47065;52.898;6.992;2023-11-19T01:35:04;11.50;99.90
61201;DHT22;47065;52.898;6.992;2023-11-19T01:37:30;11.50;99.90
61201;DHT22;47065;52.898;6.992;2023-11-19T01:39:57;11.50;99.90
61201;DHT22;47065;52.898;6.992;2023-11-19T01:42:23;11.60;99.90
61201;DHT22;47065;52.898;6.992;2023-11-19T01:45:00;11.60;99.90
61201;DHT22;47065;52.898;6.992;2023-11-19T01:47:30;11.60;99.90
61201;DHT22;47065;52.898;6.992;2023-11-19T01:49:56;11.60;99.90
61201;DHT22;47065;52.898;6.992;2023-11-19T01:52:23;11.60;99.90
61201;DHT22;47065;52.898;6.992;2023-11-19T01:54:49;11.60;99.90
61201;DHT22;47065;52.898;6.992;2023-11-19T01:57:15;11.60;99.90
61201;DHT22;47065;52.898;6.992;2023-11-19T01:59:42;11.60;99.90
61201;DHT22;47065;52.898;6.992;2023-11-19T02:02:08;11.70;99.90
61201;DHT22;47065;52.898;6.992;2023-11-19T02:04:34;11.60;99.90
61201;DHT22;47065;52.898;6.992;2023-11-19T02:07:00;11.70;99.90
61201;DHT22;47065;52.898;6.992;2023-11-19T02:09:26;11.60;99.90
61201;DHT22;47065;52.898;6.992;2023-11-19T02:11:53;11.60;99.90
61201;DHT22;47065;52.898;6.992;2023-11-19T02:14:23;11.60;99.90
61201;DHT22;47065;52.898;6.992;2023-11-19T02:16:51;11.70;99.90
61201;DHT22;47065;52.898;6.992;2023-11-19T02:19:19;11.70;99.90
61201;DHT22;47065;52.898;6.992;2023-11-19T02:21:45;11.70;99.90
61201;DHT22;47065;52.898;6.992;2023-11-19T02:24:12;11.70;99.90
61201;DHT22;47065;52.898;6.992;2023-11-19T02:26:45;11.70;99.90
61201;DHT22;47065;52.898;6.992;2023-11-19T02:29:13;11.70;99.90
61201;DHT22;47065;52.898;6.992;2023-11-19T02:31:39;11.70;99.90
61201;DHT22;47065;52.898;6.992;2023-11-19T02:34:04;11.60;99.90
61201;DHT22;47065;52.898;6.992;2023-11-19T02:36:31;11.70;99.90
61201;DHT22;47065;52.898;6.992;2023-11-19T02:38:58;11.70;99.90
61201;DHT22;47065;52.898;6.992;2023-11-19T02:41:23;11.70;99.90
61201;DHT22;47065;52.898;6.992;2023-11-19T02:43:49;11.70;99.90
61201;DHT22;47065;52.898;6.992;2023-11-19T02:46:15;11.70;99.90
61201;DHT22;47065;52.898;6.992;2023-11-19T02:48:43;11.70;99.90
61201;DHT22;47065;52.898;6.992;2023-11-19T02:51:09;11.70;99.90
61201;DHT22;47065;52.898;6.992;2023-11-19T02:53:36;11.70;99.90
61201;DHT22;47065;52.898;6.992;2023-11-19T02:56:05;11.70;99.90
61201;DHT22;47065;52.898;6.992;2023-11-19T02:58:51;11.70;99.90
61201;DHT22;47065;52.898;6.992;2023-11-19T03:01:26;11.80;99.90
61201;DHT22;47065;52.898;6.992;2023-11-19T03:03:59;11.80;99.90
61201;DHT22;47065;52.898;6.992;2023-11-19T03:06:27;11.80;99.90
61201;DHT22;47065;52.898;6.992;2023-11-19T03:08:55;11.80;99.90
61201;DHT22;47065;52.898;6.992;2023-11-19T03:11:20;11.80;99.90
61201;DHT22;47065;52.898;6.992;2023-11-19T03:13:47;11.90;99.90
61201;DHT22;47065;52.898;6.992;2023-11-19T03:16:12;11.90;99.90
61201;DHT22;47065;52.898;6.992;2023-11-19T03:18:38;11.90;99.90
61201;DHT22;47065;52.898;6.992;2023-11-19T03:21:07;11.90;99.90
61201;DHT22;47065;52.898;6.992;2023-11-19T03:23:36;12.00;99.90
61201;DHT22;47065;52.898;6.992;2023-11-19T03:26:02;11.90;99.90
61201;DHT22;47065;52.898;6.992;2023-11-19T03:28:31;12.00;99.90
61201;DHT22;47065;52.898;6.992;2023-11-19T03:30:57;12.00;99.90
61201;DHT22;47065;52.898;6.992;2023-11-19T03:33:23;12.00;99.90
61201;DHT22;47065;52.898;6.992;2023-11-19T03:35:48;12.10;99.90
61201;DHT22;47065;52.898;6.992;2023-11-19T03:38:14;12.10;99.90
61201;DHT22;47065;52.898;6.992;2023-11-19T03:40:40;12.20;99.90
61201;DHT22;47065;52.898;6.992;2023-11-19T03:43:06;12.20;99.90
61201;DHT22;47065;52.898;6.992;2023-11-19T03:45:32;12.20;99.90
61201;DHT22;47065;52.898;6.992;2023-11-19T03:47:57;12.30;99.90
61201;DHT22;47065;52.898;6.992;2023-11-19T03:50:23;12.20;99.90
61201;DHT22;47065;52.898;6.992;2023-11-19T03:52:49;12.20;99.90
61201;DHT22;47065;52.898;6.992;2023-11-19T03:55:15;12.20;99.90
61201;DHT22;47065;52.898;6.992;2023-11-19T03:57:41;12.20;99.90
61201;DHT22;47065;52.898;6.992;2023-11-19T04:00:07;12.30;99.90
61201;DHT22;47065;52.898;6.992;2023-11-19T04:02:40;12.20;99.90
61201;DHT22;47065;52.898;6.992;2023-11-19T04:05:06;12.30;99.90
61201;DHT22;47065;52.898;6.992;2023-11-19T04:07:32;12.30;99.90
61201;DHT22;47065;52.898;6.992;2023-11-19T04:09:58;12.30;99.90
61201;DHT22;47065;52.898;6.992;2023-11-19T04:12:24;12.30;99.90
61201;DHT22;47065;52.898;6.992;2023-11-19T04:14:50;12.20;99.90
61201;DHT22;47065;52.898;6.992;2023-11-19T04:17:15;12.20;99.90
61201;DHT22;47065;52.898;6.992;2023-11-19T04:19:41;12.20;99.90
61201;DHT22;47065;52.898;6.992;2023-11-19T04:22:07;12.30;99.90
61201;DHT22;47065;52.898;6.992;2023-11-19T04:24:34;12.30;99.90
61201;DHT22;47065;52.898;6.992;2023-11-19T04:27:00;12.20;99.90
61201;DHT22;47065;52.898;6.992;2023-11-19T04:29:26;12.30;99.90
61201;DHT22;47065;52.898;6.992;2023-11-19T04:31:51;12.20;99.90
61201;DHT22;47065;52.898;6.992;2023-11-19T04:34:17;12.30;99.90
61201;DHT22;47065;52.898;6.992;2023-11-19T04:36:42;12.20;99.90
61201;DHT22;47065;52.898;6.992;2023-11-19T04:39:09;12.30;99.90
61201;DHT22;47065;52.898;6.992;2023-11-19T04:41:46;12.30;99.90
61201;DHT22;47065;52.898;6.992;2023-11-19T04:44:12;12.30;99.90
61201;DHT22;47065;52.898;6.992;2023-11-19T04:46:38;12.20;99.90
61201;DHT22;47065;52.898;6.992;2023-11-19T04:49:04;12.20;99.90
61201;DHT22;47065;52.898;6.992;2023-11-19T04:51:30;12.30;99.90
61201;DHT22;47065;52.898;6.992;2023-11-19T04:53:55;12.30;99.90
61201;DHT22;47065;52.898;6.992;2023-11-19T04:56:21;12.20;99.90
61201;DHT22;47065;52.898;6.992;2023-11-19T04:58:48;12.20;99.90
61201;DHT22;47065;52.898;6.992;2023-11-19T05:01:14;12.20;99.90
61201;DHT22;47065;52.898;6.992;2023-11-19T05:03:43;12.20;99.90
61201;DHT22;47065;52.898;6.992;2023-11-19T05:06:09;12.20;99.90
61201;DHT22;47065;52.898;6.992;2023-11-19T05:08:35;12.20;99.90
61201;DHT22;47065;52.898;6.992;2023-11-19T05:11:01;12.20;99.90
61201;DHT22;47065;52.898;6.992;2023-11-19T05:13:26;12.20;99.90
61201;DHT22;47065;52.898;6.992;2023-11-19T05:15:52;12.20;99.90
61201;DHT22;47065;52.898;6.992;2023-11-19T05:18:18;12.20;99.90
61201;DHT22;47065;52.898;6.992;2023-11-19T05:20:45;12.20;99.90
61201;DHT22;47065;52.898;6.992;2023-11-19T05:23:10;12.20;99.90
61201;DHT22;47065;52.898;6.992;2023-11-19T05:25:36;12.20;99.90
61201;DHT22;47065;52.898;6.992;2023-11-19T05:28:02;12.20;99.90
61201;DHT22;47065;52.898;6.992;2023-11-19T05:30:28;12.10;99.90
61201;DHT22;47065;52.898;6.992;2023-11-19T05:32:53;12.10;99.90
61201;DHT22;47065;52.898;6.992;2023-11-19T05:35:19;12.10;99.90
61201;DHT22;47065;52.898;6.992;2023-11-19T05:37:44;12.10;99.90
61201;DHT22;47065;52.898;6.992;2023-11-19T05:40:10;12.10;99.90
61201;DHT22;47065;52.898;6.992;2023-11-19T05:42:43;12.10;99.90
61201;DHT22;47065;52.898;6.992;2023-11-19T05:45:11;12.10;99.90
61201;DHT22;47065;52.898;6.992;2023-11-19T05:47:37;12.10;99.90
61201;DHT22;47065;52.898;6.992;2023-11-19T05:50:03;12.00;99.90
61201;DHT22;47065;52.898;6.992;2023-11-19T05:52:30;12.10;99.90
61201;DHT22;47065;52.898;6.992;2023-11-19T05:55:00;12.00;99.90
61201;DHT22;47065;52.898;6.992;2023-11-19T05:57:27;12.00;99.90
61201;DHT22;47065;52.898;6.992;2023-11-19T05:59:54;12.00;99.90
61201;DHT22;47065;52.898;6.992;2023-11-19T06:02:20;12.00;99.90
61201;DHT22;47065;52.898;6.992;2023-11-19T06:04:45;12.00;99.90
61201;DHT22;47065;52.898;6.992;2023-11-19T06:07:14;12.00;99.90
61201;DHT22;47065;52.898;6.992;2023-11-19T06:09:41;12.00;99.90
61201;DHT22;47065;52.898;6.992;2023-11-19T06:12:07;12.00;99.90
61201;DHT22;47065;52.898;6.992;2023-11-19T06:14:33;12.00;99.90
61201;DHT22;47065;52.898;6.992;2023-11-19T06:16:58;12.00;99.90
61201;DHT22;47065;52.898;6.992;2023-11-19T06:19:24;12.00;99.90
61201;DHT22;47065;52.898;6.992;2023-11-19T06:21:52;11.90;99.90
61201;DHT22;47065;52.898;6.992;2023-11-19T06:24:18;11.90;99.90
61201;DHT22;47065;52.898;6.992;2023-11-19T06:26:44;11.90;99.90
61201;DHT22;47065;52.898;6.992;2023-11-19T06:29:09;11.90;99.90
61201;DHT22;47065;52.898;6.992;2023-11-19T06:31:35;11.90;99.90
61201;DHT22;47065;52.898;6.992;2023-11-19T06:34:00;11.90;99.90
61201;DHT22;47065;52.898;6.992;2023-11-19T06:36:26;11.90;99.90
61201;DHT22;47065;52.898;6.992;2023-11-19T06:38:52;11.90;99.90
61201;DHT22;47065;52.898;6.992;2023-11-19T06:41:18;11.80;99.90
61201;DHT22;47065;52.898;6.992;2023-11-19T06:43:43;11.80;99.90
61201;DHT22;47065;52.898;6.992;2023-11-19T06:46:16;11.80;99.90
61201;DHT22;47065;52.898;6.992;2023-11-19T06:48:42;11.80;99.90
61201;DHT22;47065;52.898;6.992;2023-11-19T06:51:09;11.80;99.90
61201;DHT22;47065;52.898;6.992;2023-11-19T06:53:35;11.80;99.90
61201;DHT22;47065;52.898;6.992;2023-11-19T06:56:01;11.80;99.90
61201;DHT22;47065;52.898;6.992;2023-11-19T06:58:35;11.80;99.90
61201;DHT22;47065;52.898;6.992;2023-11-19T07:01:01;11.80;99.90
61201;DHT22;47065;52.898;6.992;2023-11-19T07:03:26;11.80;99.90
61201;DHT22;47065;52.898;6.992;2023-11-19T07:05:52;11.80;99.90
61201;DHT22;47065;52.898;6.992;2023-11-19T07:08:17;11.70;99.90
61201;DHT22;47065;52.898;6.992;2023-11-19T07:10:43;11.70;99.90
61201;DHT22;47065;52.898;6.992;2023-11-19T07:13:09;11.70;99.90
61201;DHT22;47065;52.898;6.992;2023-11-19T07:15:35;11.70;99.90
61201;DHT22;47065;52.898;6.992;2023-11-19T07:18:00;11.70;99.90
61201;DHT22;47065;52.898;6.992;2023-11-19T07:20:26;11.70;99.90
61201;DHT22;47065;52.898;6.992;2023-11-19T07:22:52;11.70;99.90
61201;DHT22;47065;52.898;6.992;2023-11-19T07:25:18;11.70;99.90
61201;DHT22;47065;52.898;6.992;2023-11-19T07:27:43;11.70;99.90
61201;DHT22;47065;52.898;6.992;2023-11-19T07:30:09;11.60;99.90
61201;DHT22;47065;52.898;6.992;2023-11-19T07:32:35;11.60;99.90
61201;DHT22;47065;52.898;6.992;2023-11-19T07:35:01;11.60;99.90
61201;DHT22;47065;52.898;6.992;2023-11-19T07:37:26;11.60;99.90
61201;DHT22;47065;52.898;6.992;2023-11-19T07:39:52;11.60;99.90
61201;DHT22;47065;52.898;6.992;2023-11-19T07:42:17;11.60;99.90
61201;DHT22;47065;52.898;6.992;2023-11-19T07:44:44;11.60;99.90
61201;DHT22;47065;52.898;6.992;2023-11-19T07:47:09;11.60;99.90
61201;DHT22;47065;52.898;6.992;2023-11-19T07:49:35;11.50;99.90
61201;DHT22;47065;52.898;6.992;2023-11-19T07:52:01;11.60;99.90
61201;DHT22;47065;52.898;6.992;2023-11-19T07:54:28;11.60;99.90
61201;DHT22;47065;52.898;6.992;2023-11-19T07:56:54;11.60;99.90
61201;DHT22;47065;52.898;6.992;2023-11-19T07:59:21;11.60;99.90
61201;DHT22;47065;52.898;6.992;2023-11-19T08:01:46;11.60;99.90
61201;DHT22;47065;52.898;6.992;2023-11-19T08:04:12;11.60;99.90
61201;DHT22;47065;52.898;6.992;2023-11-19T08:06:38;11.60;99.90
61201;DHT22;47065;52.898;6.992;2023-11-19T08:09:04;11.50;99.90
61201;DHT22;47065;52.898;6.992;2023-11-19T08:11:29;11.50;99.90
61201;DHT22;47065;52.898;6.992;2023-11-19T08:13:55;11.50;99.90
61201;DHT22;47065;52.898;6.992;2023-11-19T08:16:21;11.50;99.90
61201;DHT22;47065;52.898;6.992;2023-11-19T08:18:46;11.50;99.90
61201;DHT22;47065;52.898;6.992;2023-11-19T08:21:12;11.60;99.90
61201;DHT22;47065;52.898;6.992;2023-11-19T08:23:38;11.50;99.90
61201;DHT22;47065;52.898;6.992;2023-11-19T08:26:04;11.50;99.90
61201;DHT22;47065;52.898;6.992;2023-11-19T08:28:30;11.60;99.90
61201;DHT22;47065;52.898;6.992;2023-11-19T08:30:56;11.60;99.90
61201;DHT22;47065;52.898;6.992;2023-11-19T08:33:22;11.50;99.90
61201;DHT22;47065;52.898;6.992;2023-11-19T08:35:48;11.60;99.90
61201;DHT22;47065;52.898;6.992;2023-11-19T08:38:13;11.60;99.90
61201;DHT22;47065;52.898;6.992;2023-11-19T08:40:39;11.60;99.90
61201;DHT22;47065;52.898;6.992;2023-11-19T08:43:05;11.60;99.90
61201;DHT22;47065;52.898;6.992;2023-11-19T08:45:31;11.60;99.90
61201;DHT22;47065;52.898;6.992;2023-11-19T08:47:57;11.60;99.90
61201;DHT22;47065;52.898;6.992;2023-11-19T08:50:23;11.60;99.90
61201;DHT22;47065;52.898;6.992;2023-11-19T08:52:49;11.60;99.90
61201;DHT22;47065;52.898;6.992;2023-11-19T08:55:15;11.50;99.90
61201;DHT22;47065;52.898;6.992;2023-11-19T08:57:40;11.60;99.90
61201;DHT22;47065;52.898;6.992;2023-11-19T09:00:07;11.60;99.90
61201;DHT22;47065;52.898;6.992;2023-11-19T09:02:34;11.60;99.90
61201;DHT22;47065;52.898;6.992;2023-11-19T09:05:00;11.60;99.90
61201;DHT22;47065;52.898;6.992;2023-11-19T09:07:27;11.60;99.90
61201;DHT22;47065;52.898;6.992;2023-11-19T09:09:53;11.60;99.90
61201;DHT22;47065;52.898;6.992;2023-11-19T09:12:18;11.50;99.90
61201;DHT22;47065;52.898;6.992;2023-11-19T09:14:44;11.60;99.90
61201;DHT22;47065;52.898;6.992;2023-11-19T09:17:11;11.50;99.90
61201;DHT22;47065;52.898;6.992;2023-11-19T09:19:37;11.50;99.90
61201;DHT22;47065;52.898;6.992;2023-11-19T09:22:03;11.50;99.90
61201;DHT22;47065;52.898;6.992;2023-11-19T09:24:29;11.50;99.90
61201;DHT22;47065;52.898;6.992;2023-11-19T09:26:54;11.50;99.90
61201;DHT22;47065;52.898;6.992;2023-11-19T09:29:21;11.50;99.90
61201;DHT22;47065;52.898;6.992;2023-11-19T09:31:47;11.50;99.90
61201;DHT22;47065;52.898;6.992;2023-11-19T09:34:13;11.50;99.90
61201;DHT22;47065;52.898;6.992;2023-11-19T09:36:38;11.50;99.90
61201;DHT22;47065;52.898;6.992;2023-11-19T09:39:11;11.50;99.90
61201;DHT22;47065;52.898;6.992;2023-11-19T09:41:40;11.50;99.90
61201;DHT22;47065;52.898;6.992;2023-11-19T09:44:06;11.50;99.90
61201;DHT22;47065;52.898;6.992;2023-11-19T09:46:32;11.60;99.90
61201;DHT22;47065;52.898;6.992;2023-11-19T09:48:58;11.60;99.90
61201;DHT22;47065;52.898;6.992;2023-11-19T09:51:25;11.50;99.90
61201;DHT22;47065;52.898;6.992;2023-11-19T09:53:50;11.50;99.90
61201;DHT22;47065;52.898;6.992;2023-11-19T09:56:16;11.60;99.90
61201;DHT22;47065;52.898;6.992;2023-11-19T09:58:43;11.60;99.90
61201;DHT22;47065;52.898;6.992;2023-11-19T10:01:08;11.60;99.90
61201;DHT22;47065;52.898;6.992;2023-11-19T10:03:37;11.60;99.90
61201;DHT22;47065;52.898;6.992;2023-11-19T10:06:08;11.60;99.90
61201;DHT22;47065;52.898;6.992;2023-11-19T10:08:36;11.70;99.90
61201;DHT22;47065;52.898;6.992;2023-11-19T10:11:02;11.70;99.90
61201;DHT22;47065;52.898;6.992;2023-11-19T10:13:29;11.70;99.90
61201;DHT22;47065;52.898;6.992;2023-11-19T10:15:55;11.70;99.90
61201;DHT22;47065;52.898;6.992;2023-11-19T10:18:26;11.80;99.90
61201;DHT22;47065;52.898;6.992;2023-11-19T10:20:52;11.80;99.90
61201;DHT22;47065;52.898;6.992;2023-11-19T10:23:18;11.80;99.90
61201;DHT22;47065;52.898;6.992;2023-11-19T10:25:44;11.80;99.90
61201;DHT22;47065;52.898;6.992;2023-11-19T10:28:09;11.80;99.90
61201;DHT22;47065;52.898;6.992;2023-11-19T10:30:35;11.80;99.90
61201;DHT22;47065;52.898;6.992;2023-11-19T10:33:08;11.80;99.90
61201;DHT22;47065;52.898;6.992;2023-11-19T10:35:35;11.80;99.90
61201;DHT22;47065;52.898;6.992;2023-11-19T10:38:14;11.80;99.90
61201;DHT22;47065;52.898;6.992;2023-11-19T10:40:43;11.80;99.90
61201;DHT22;47065;52.898;6.992;2023-11-19T10:43:09;11.70;99.90
61201;DHT22;47065;52.898;6.992;2023-11-19T10:45:35;11.70;99.90
61201;DHT22;47065;52.898;6.992;2023-11-19T10:48:05;11.60;99.90
61201;DHT22;47065;52.898;6.992;2023-11-19T10:50:34;11.60;99.90
61201;DHT22;47065;52.898;6.992;2023-11-19T10:53:02;11.50;99.90
61201;DHT22;47065;52.898;6.992;2023-11-19T10:55:33;11.50;99.90
61201;DHT22;47065;52.898;6.992;2023-11-19T10:58:06;11.40;99.90
61201;DHT22;47065;52.898;6.992;2023-11-19T11:00:55;11.40;99.90
61201;DHT22;47065;52.898;6.992;2023-11-19T11:03:25;11.40;99.90
61201;DHT22;47065;52.898;6.992;2023-11-19T11:05:51;11.30;99.90
61201;DHT22;47065;52.898;6.992;2023-11-19T11:08:18;11.30;99.90
61201;DHT22;47065;52.898;6.992;2023-11-19T11:10:57;11.30;99.90
61201;DHT22;47065;52.898;6.992;2023-11-19T11:13:26;11.40;99.90
61201;DHT22;47065;52.898;6.992;2023-11-19T11:15:56;11.40;99.90
61201;DHT22;47065;52.898;6.992;2023-11-19T11:18:25;11.40;99.90
61201;DHT22;47065;52.898;6.992;2023-11-19T11:21:04;11.50;99.90
61201;DHT22;47065;52.898;6.992;2023-11-19T11:29:10;11.60;99.90
61201;DHT22;47065;52.898;6.992;2023-11-19T11:34:47;11.60;99.90
61201;DHT22;47065;52.898;6.992;2023-11-19T11:39:57;11.70;99.90
61201;DHT22;47065;52.898;6.992;2023-11-19T11:45:05;11.70;99.90
61201;DHT22;47065;52.898;6.992;2023-11-19T11:50:19;11.70;99.90
61201;DHT22;47065;52.898;6.992;2023-11-19T11:55:29;11.70;99.90
61201;DHT22;47065;52.898;6.992;2023-11-19T11:57:59;11.70;99.90
61201;DHT22;47065;52.898;6.992;2023-11-19T12:00:30;11.70;99.90
61201;DHT22;47065;52.898;6.992;2023-11-19T12:03:00;11.70;99.90
61201;DHT22;47065;52.898;6.992;2023-11-19T12:05:26;11.70;99.90
61201;DHT22;47065;52.898;6.992;2023-11-19T12:07:57;11.70;99.90
61201;DHT22;47065;52.898;6.992;2023-11-19T12:10:24;11.70;99.90
61201;DHT22;47065;52.898;6.992;2023-11-19T12:12:52;11.70;99.90
61201;DHT22;47065;52.898;6.992;2023-11-19T12:15:18;11.70;99.90
61201;DHT22;47065;52.898;6.992;2023-11-19T12:17:49;11.70;99.90
61201;DHT22;47065;52.898;6.992;2023-11-19T12:20:17;11.70;99.90
61201;DHT22;47065;52.898;6.992;2023-11-19T12:22:44;11.70;99.90
61201;DHT22;47065;52.898;6.992;2023-11-19T12:25:11;11.60;99.90
61201;DHT22;47065;52.898;6.992;2023-11-19T12:27:41;11.60;99.90
61201;DHT22;47065;52.898;6.992;2023-11-19T12:30:08;11.60;99.90
61201;DHT22;47065;52.898;6.992;2023-11-19T12:32:40;11.60;99.90
61201;DHT22;47065;52.898;6.992;2023-11-19T12:35:07;11.60;99.90
61201;DHT22;47065;52.898;6.992;2023-11-19T12:37:45;11.60;99.90
61201;DHT22;47065;52.898;6.992;2023-11-19T12:40:31;11.60;99.90
61201;DHT22;47065;52.898;6.992;2023-11-19T12:42:57;11.60;99.90
61201;DHT22;47065;52.898;6.992;2023-11-19T12:45:24;11.50;99.90
61201;DHT22;47065;52.898;6.992;2023-11-19T12:47:52;11.50;99.90
61201;DHT22;47065;52.898;6.992;2023-11-19T12:50:29;11.50;99.90
61201;DHT22;47065;52.898;6.992;2023-11-19T12:52:55;11.40;99.90
61201;DHT22;47065;52.898;6.992;2023-11-19T12:55:27;11.40;99.90
61201;DHT22;47065;52.898;6.992;2023-11-19T12:57:53;11.30;99.90
61201;DHT22;47065;52.898;6.992;2023-11-19T13:00:21;11.30;99.90
61201;DHT22;47065;52.898;6.992;2023-11-19T13:02:50;11.20;99.90
61201;DHT22;47065;52.898;6.992;2023-11-19T13:08:07;11.10;99.90
61201;DHT22;47065;52.898;6.992;2023-11-19T13:13:21;11.10;99.90
61201;DHT22;47065;52.898;6.992;2023-11-19T13:15:47;11.10;99.90
61201;DHT22;47065;52.898;6.992;2023-11-19T13:18:15;11.10;99.90
61201;DHT22;47065;52.898;6.992;2023-11-19T13:20:41;11.10;99.90
61201;DHT22;47065;52.898;6.992;2023-11-19T13:23:07;11.10;99.90
61201;DHT22;47065;52.898;6.992;2023-11-19T13:25:33;11.20;99.90
61201;DHT22;47065;52.898;6.992;2023-11-19T13:27:59;11.20;99.90
61201;DHT22;47065;52.898;6.992;2023-11-19T13:30:26;11.20;99.90
61201;DHT22;47065;52.898;6.992;2023-11-19T13:32:52;11.30;99.90
61201;DHT22;47065;52.898;6.992;2023-11-19T13:35:20;11.30;99.90
61201;DHT22;47065;52.898;6.992;2023-11-19T13:37:45;11.20;99.90
61201;DHT22;47065;52.898;6.992;2023-11-19T13:40:12;11.30;99.90
61201;DHT22;47065;52.898;6.992;2023-11-19T13:42:41;11.30;99.90
61201;DHT22;47065;52.898;6.992;2023-11-19T13:45:12;11.30;99.90
61201;DHT22;47065;52.898;6.992;2023-11-19T13:47:45;11.30;99.90
61201;DHT22;47065;52.898;6.992;2023-11-19T13:50:12;11.30;99.90
61201;DHT22;47065;52.898;6.992;2023-11-19T13:52:41;11.20;99.90
61201;DHT22;47065;52.898;6.992;2023-11-19T13:55:09;11.30;99.90
61201;DHT22;47065;52.898;6.992;2023-11-19T13:57:38;11.30;99.90
61201;DHT22;47065;52.898;6.992;2023-11-19T14:00:08;11.30;99.90
61201;DHT22;47065;52.898;6.992;2023-11-19T14:02:45;11.30;99.90
61201;DHT22;47065;52.898;6.992;2023-11-19T14:05:12;11.30;99.90
61201;DHT22;47065;52.898;6.992;2023-11-19T14:07:41;11.30;99.90
61201;DHT22;47065;52.898;6.992;2023-11-19T14:10:08;11.30;99.90
61201;DHT22;47065;52.898;6.992;2023-11-19T14:12:37;11.30;99.90
61201;DHT22;47065;52.898;6.992;2023-11-19T14:15:06;11.30;99.90
61201;DHT22;47065;52.898;6.992;2023-11-19T14:17:33;11.30;99.90
61201;DHT22;47065;52.898;6.992;2023-11-19T14:20:00;11.40;99.90
61201;DHT22;47065;52.898;6.992;2023-11-19T14:22:25;11.40;99.90
61201;DHT22;47065;52.898;6.992;2023-11-19T14:24:51;11.40;99.90
61201;DHT22;47065;52.898;6.992;2023-11-19T14:27:17;11.40;99.90
61201;DHT22;47065;52.898;6.992;2023-11-19T14:29:43;11.40;99.90
61201;DHT22;47065;52.898;6.992;2023-11-19T14:32:10;11.30;99.90
61201;DHT22;47065;52.898;6.992;2023-11-19T14:34:36;11.40;99.90
61201;DHT22;47065;52.898;6.992;2023-11-19T14:37:01;11.30;99.90
61201;DHT22;47065;52.898;6.992;2023-11-19T14:39:27;11.30;99.90
61201;DHT22;47065;52.898;6.992;2023-11-19T14:41:54;11.30;99.90
61201;DHT22;47065;52.898;6.992;2023-11-19T14:44:23;11.30;99.90
61201;DHT22;47065;52.898;6.992;2023-11-19T14:46:49;11.20;99.90
61201;DHT22;47065;52.898;6.992;2023-11-19T14:49:15;11.20;99.90
61201;DHT22;47065;52.898;6.992;2023-11-19T14:51:41;11.20;99.90
61201;DHT22;47065;52.898;6.992;2023-11-19T14:54:06;11.10;99.90
61201;DHT22;47065;52.898;6.992;2023-11-19T14:56:32;11.10;99.90
61201;DHT22;47065;52.898;6.992;2023-11-19T14:58:58;11.10;99.90
61201;DHT22;47065;52.898;6.992;2023-11-19T15:01:24;11.10;99.90
61201;DHT22;47065;52.898;6.992;2023-11-19T15:03:50;11.10;99.90
61201;DHT22;47065;52.898;6.992;2023-11-19T15:06:16;11.00;99.90
61201;DHT22;47065;52.898;6.992;2023-11-19T15:08:41;11.00;99.90
61201;DHT22;47065;52.898;6.992;2023-11-19T15:11:08;11.00;99.90
61201;DHT22;47065;52.898;6.992;2023-11-19T15:13:35;11.00;99.90
61201;DHT22;47065;52.898;6.992;2023-11-19T15:16:02;10.90;99.90
61201;DHT22;47065;52.898;6.992;2023-11-19T15:18:31;10.90;99.90
61201;DHT22;47065;52.898;6.992;2023-11-19T15:20:57;10.90;99.90
61201;DHT22;47065;52.898;6.992;2023-11-19T15:23:22;10.90;99.90
61201;DHT22;47065;52.898;6.992;2023-11-19T15:25:48;10.90;99.90
61201;DHT22;47065;52.898;6.992;2023-11-19T15:28:15;10.90;99.90
61201;DHT22;47065;52.898;6.992;2023-11-19T15:30:41;10.80;99.90
61201;DHT22;47065;52.898;6.992;2023-11-19T15:33:07;10.90;99.90
61201;DHT22;47065;52.898;6.992;2023-11-19T15:35:34;10.90;99.90
61201;DHT22;47065;52.898;6.992;2023-11-19T15:38:00;10.90;99.90
61201;DHT22;47065;52.898;6.992;2023-11-19T15:40:26;10.90;99.90
61201;DHT22;47065;52.898;6.992;2023-11-19T15:42:52;10.90;99.90
61201;DHT22;47065;52.898;6.992;2023-11-19T15:45:20;10.90;99.90
61201;DHT22;47065;52.898;6.992;2023-11-19T15:47:46;10.90;99.90
61201;DHT22;47065;52.898;6.992;2023-11-19T15:50:11;10.90;99.90
61201;DHT22;47065;52.898;6.992;2023-11-19T15:52:37;10.90;99.90
61201;DHT22;47065;52.898;6.992;2023-11-19T15:55:04;10.90;99.90